createdAt,value
2022-09-14T00:01:46.597Z,67.10
2022-09-14T00:04:18.490Z,68.10
2022-09-14T00:06:48.973Z,66.10
2022-09-14T00:09:21.576Z,64.90
2022-09-14T00:11:53.159Z,64.00
2022-09-14T00:14:22.259Z,64.50
2022-09-14T00:16:52.286Z,64.00
2022-09-14T00:19:26.259Z,62.60
2022-09-14T00:21:58.160Z,61.60
2022-09-14T00:24:30.193Z,60.90
2022-09-14T00:27:00.501Z,60.80
2022-09-14T00:29:29.357Z,59.70
2022-09-14T00:31:58.745Z,59.60
2022-09-14T00:34:28.865Z,59.20
2022-09-14T00:36:57.528Z,58.80
2022-09-14T00:39:28.175Z,58.60
2022-09-14T00:41:57.132Z,58.40
2022-09-14T00:45:04.729Z,58.30
2022-09-14T00:47:33.924Z,58.10
2022-09-14T00:50:07.036Z,58.70
2022-09-14T00:52:39.617Z,58.40
2022-09-14T00:55:12.824Z,58.20
2022-09-14T00:57:46.179Z,59.00
2022-09-14T01:04:49.364Z,58.90
2022-09-14T01:07:34.858Z,58.90
2022-09-14T01:10:20.049Z,59.60
2022-09-14T01:13:06.638Z,59.00
2022-09-14T01:15:49.716Z,58.80
2022-09-14T01:18:27.778Z,58.70
2022-09-14T01:21:05.097Z,58.70
2022-09-14T01:23:43.978Z,58.30
2022-09-14T01:26:50.508Z,58.10
2022-09-14T01:29:27.553Z,58.10
2022-09-14T01:32:04.478Z,58.60
2022-09-14T01:34:40.786Z,57.80
2022-09-14T01:37:15.514Z,58.60
2022-09-14T01:39:51.201Z,57.70
2022-09-14T01:42:26.205Z,57.60
2022-09-14T01:45:02.338Z,57.70
2022-09-14T01:47:41.452Z,57.60
2022-09-14T01:50:18.251Z,57.70
2022-09-14T01:52:53.655Z,57.60
2022-09-14T01:55:31.397Z,57.70
2022-09-14T01:58:09.333Z,57.70
2022-09-14T02:00:46.013Z,57.70
2022-09-14T02:03:21.332Z,57.80
2022-09-14T02:05:57.124Z,58.10
2022-09-14T02:08:28.902Z,58.00
2022-09-14T02:10:58.955Z,57.90
2022-09-14T02:13:29.047Z,58.00
2022-09-14T02:15:59.392Z,58.00
2022-09-14T02:18:28.273Z,58.70
2022-09-14T02:25:29.806Z,57.90
2022-09-14T02:27:59.580Z,57.70
2022-09-14T02:30:39.365Z,57.60
2022-09-14T02:33:16.985Z,57.60
2022-09-14T02:35:53.401Z,57.70
2022-09-14T02:38:35.402Z,57.70
2022-09-14T02:41:16.455Z,57.70
2022-09-14T02:43:55.996Z,58.50
2022-09-14T02:46:39.743Z,58.70
2022-09-14T02:49:22.632Z,58.80
2022-09-14T02:52:03.682Z,58.90
2022-09-14T02:54:42.129Z,59.00
2022-09-14T02:57:10.914Z,59.00
2022-09-14T02:59:39.766Z,59.40
2022-09-14T03:02:08.543Z,59.40
2022-09-14T03:04:38.579Z,59.40
2022-09-14T03:07:07.474Z,59.00
2022-09-14T03:09:36.217Z,59.20
2022-09-14T03:12:05.399Z,59.70
2022-09-14T03:14:34.399Z,59.60
2022-09-14T03:17:02.964Z,59.90
2022-09-14T03:19:31.632Z,59.70
2022-09-14T03:22:02.561Z,59.50
2022-09-14T03:24:31.573Z,59.30
2022-09-14T03:27:00.160Z,59.40
2022-09-14T03:29:28.929Z,59.20
2022-09-14T03:31:57.932Z,59.30
2022-09-14T03:34:26.672Z,59.10
2022-09-14T03:36:55.432Z,58.90
2022-09-14T03:39:25.537Z,58.80
2022-09-14T03:51:01.919Z,58.00
2022-09-14T03:53:31.166Z,58.30
2022-09-14T03:56:01.599Z,57.60
2022-09-14T03:58:33.363Z,57.60
2022-09-14T04:05:34.712Z,57.40
2022-09-14T04:08:04.065Z,57.30
2022-09-14T04:10:32.960Z,57.40
2022-09-14T04:13:03.008Z,57.40
2022-09-14T04:15:31.984Z,57.40
2022-09-14T04:18:00.642Z,57.50
2022-09-14T04:20:29.243Z,57.50
2022-09-14T04:22:58.540Z,57.30
2022-09-14T04:25:27.253Z,57.40
2022-09-14T04:28:16.768Z,57.40
2022-09-14T04:30:46.358Z,57.50
2022-09-14T04:33:14.954Z,57.20
2022-09-14T04:35:43.523Z,57.50
2022-09-14T04:38:12.286Z,57.60
2022-09-14T04:40:43.042Z,57.60
2022-09-14T04:43:11.655Z,57.60
2022-09-14T04:45:40.968Z,57.40
2022-09-14T04:48:11.110Z,57.40
2022-09-14T04:50:40.074Z,57.30
2022-09-14T04:53:09.015Z,57.30
2022-09-14T04:55:38.361Z,57.40
2022-09-14T04:58:06.971Z,57.50
2022-09-14T05:00:37.183Z,57.40
2022-09-14T05:03:06.656Z,57.50
2022-09-14T05:05:40.038Z,57.50
2022-09-14T05:08:11.788Z,57.40
2022-09-14T05:10:40.407Z,57.50
2022-09-14T05:13:08.977Z,57.50
2022-09-14T05:15:37.979Z,57.60
2022-09-14T05:18:06.822Z,57.50
2022-09-14T05:20:39.117Z,57.50
2022-09-14T05:27:40.000Z,57.50
2022-09-14T05:30:10.952Z,57.50
2022-09-14T05:32:39.571Z,57.50
2022-09-14T05:35:09.240Z,57.50
2022-09-14T05:37:39.599Z,57.60
2022-09-14T05:40:10.120Z,57.60
2022-09-14T05:42:39.075Z,57.50
2022-09-14T05:45:09.083Z,57.50
2022-09-14T05:47:39.259Z,57.50
2022-09-14T05:50:09.529Z,57.60
2022-09-14T05:52:39.595Z,57.60
2022-09-14T05:55:09.682Z,57.50
2022-09-14T05:57:38.340Z,57.50
2022-09-14T06:00:08.340Z,57.70
2022-09-14T06:02:41.259Z,57.80
2022-09-14T06:05:10.588Z,57.60
2022-09-14T06:07:40.592Z,57.70
2022-09-14T06:10:10.537Z,57.90
2022-09-14T06:12:39.791Z,58.30
2022-09-14T06:15:10.965Z,58.90
2022-09-14T06:17:39.889Z,59.70
2022-09-14T06:20:09.850Z,59.50
2022-09-14T06:22:39.796Z,60.10
2022-09-14T06:25:10.113Z,61.40
2022-09-14T06:27:39.030Z,61.10
2022-09-14T06:30:09.831Z,60.40
2022-09-14T06:32:38.720Z,60.20
2022-09-14T06:39:40.775Z,61.30
2022-09-14T06:42:09.441Z,61.00
2022-09-14T06:44:41.021Z,61.20
2022-09-14T06:47:09.811Z,62.20
2022-09-14T06:49:38.424Z,62.50
2022-09-14T06:52:07.344Z,63.30
2022-09-14T06:54:35.871Z,63.30
2022-09-14T06:57:07.579Z,62.90
2022-09-14T06:59:36.413Z,62.30
2022-09-14T07:02:05.234Z,61.40
2022-09-14T07:04:33.862Z,60.90
2022-09-14T07:07:02.727Z,60.00
2022-09-14T07:09:31.805Z,60.10
2022-09-14T07:12:00.777Z,59.80
2022-09-14T07:14:32.447Z,59.80
2022-09-14T07:17:01.258Z,59.60
2022-09-14T07:19:30.033Z,59.70
2022-09-14T07:21:58.884Z,60.30
2022-09-14T07:24:27.466Z,61.10
2022-09-14T07:26:56.199Z,61.30
2022-09-14T07:29:25.151Z,61.10
2022-09-14T07:31:55.550Z,59.50
2022-09-14T07:34:25.488Z,60.20
2022-09-14T07:36:54.342Z,59.50
2022-09-14T07:39:22.977Z,59.60
2022-09-14T07:41:51.614Z,60.10
2022-09-14T07:44:20.472Z,59.80
2022-09-14T07:46:49.413Z,59.20
2022-09-14T07:49:19.795Z,58.70
2022-09-14T07:51:49.235Z,58.60
2022-09-14T07:54:19.594Z,60.10
2022-09-14T07:56:49.370Z,60.70
2022-09-14T07:59:34.990Z,60.50
2022-09-14T08:02:07.150Z,60.20
2022-09-14T08:04:38.168Z,58.90
2022-09-14T08:07:08.542Z,57.40
2022-09-14T08:09:39.111Z,55.60
2022-09-14T08:12:07.953Z,55.00
2022-09-14T08:14:37.017Z,54.50
2022-09-14T08:17:06.085Z,55.40
2022-09-14T08:19:35.564Z,56.10
2022-09-14T08:22:05.916Z,55.70
2022-09-14T08:24:34.734Z,55.70
2022-09-14T08:27:03.238Z,54.70
2022-09-14T08:29:31.829Z,53.70
2022-09-14T08:32:00.681Z,54.10
2022-09-14T08:34:31.718Z,53.90
2022-09-14T08:37:00.232Z,53.30
2022-09-14T08:39:30.319Z,52.60
2022-09-14T08:42:01.919Z,53.00
2022-09-14T08:44:38.830Z,53.50
2022-09-14T08:47:14.787Z,53.90
2022-09-14T08:49:49.447Z,53.90
2022-09-14T08:52:27.739Z,54.70
2022-09-14T08:55:00.997Z,56.10
2022-09-14T08:57:40.206Z,54.50
2022-09-14T09:00:14.065Z,54.00
2022-09-14T09:03:20.179Z,53.30
2022-09-14T09:05:56.213Z,49.10
2022-09-14T09:08:39.740Z,49.80
2022-09-14T09:11:18.910Z,48.20
2022-09-14T09:13:51.371Z,46.80
2022-09-14T09:16:25.320Z,48.20
2022-09-14T09:19:00.899Z,47.80
2022-09-14T09:21:36.502Z,47.80
2022-09-14T09:24:21.590Z,47.60
2022-09-14T09:26:52.337Z,47.60
2022-09-14T09:29:21.003Z,49.70
2022-09-14T09:32:15.620Z,51.00
2022-09-14T09:35:18.227Z,50.30
2022-09-14T09:37:58.465Z,51.80
2022-09-14T09:40:35.155Z,51.20
2022-09-14T09:43:12.828Z,52.20
2022-09-14T09:45:56.623Z,51.10
2022-09-14T09:48:31.935Z,51.40
2022-09-14T09:51:11.284Z,50.40
2022-09-14T09:53:50.289Z,51.00
2022-09-14T09:56:23.492Z,50.60
2022-09-14T09:58:53.760Z,48.70
2022-09-14T10:01:29.502Z,49.40
2022-09-14T10:04:16.161Z,47.70
2022-09-14T10:06:48.546Z,47.90
2022-09-14T10:09:19.772Z,48.00
2022-09-14T10:11:57.198Z,48.20
2022-09-14T10:14:32.367Z,47.10
2022-09-14T10:17:18.716Z,46.40
2022-09-14T10:19:52.267Z,46.40
2022-09-14T10:22:29.728Z,46.40
2022-09-14T10:25:01.438Z,44.50
2022-09-14T10:27:41.450Z,44.00
2022-09-14T10:30:21.247Z,43.40
2022-09-14T10:32:59.245Z,43.30
2022-09-14T10:35:45.936Z,42.20
2022-09-14T10:38:34.445Z,43.50
2022-09-14T10:41:22.994Z,43.70
2022-09-14T10:44:19.511Z,44.80
2022-09-14T10:47:18.791Z,44.60
2022-09-14T10:50:06.934Z,45.10
2022-09-14T10:52:47.729Z,45.20
2022-09-14T10:55:37.124Z,44.20
2022-09-14T11:16:51.050Z,48.20
2022-09-14T11:19:31.684Z,49.30
2022-09-14T11:22:11.646Z,49.70
2022-09-14T11:24:49.348Z,49.30
2022-09-14T11:27:28.375Z,49.60
2022-09-14T11:30:03.852Z,49.60
2022-09-14T11:32:43.049Z,50.80
2022-09-14T11:35:22.992Z,49.10
2022-09-14T11:37:59.549Z,49.80
2022-09-14T11:40:34.472Z,48.00
2022-09-14T11:43:10.830Z,47.40
2022-09-14T11:45:48.279Z,48.00
2022-09-14T11:48:48.214Z,49.20
2022-09-14T11:51:24.022Z,49.30
2022-09-14T11:53:52.876Z,48.40
2022-09-14T11:56:28.209Z,48.90
2022-09-14T11:58:59.780Z,47.50
2022-09-14T12:01:37.638Z,48.40
2022-09-14T12:04:12.505Z,48.20
2022-09-14T12:06:56.483Z,47.30
2022-09-14T12:09:54.784Z,46.80
2022-09-14T12:12:39.039Z,48.70
2022-09-14T12:15:34.447Z,47.70
2022-09-14T12:18:25.820Z,46.90
2022-09-14T12:25:29.325Z,46.30
2022-09-14T12:27:58.399Z,47.70
2022-09-14T12:31:07.996Z,48.70
2022-09-14T12:34:19.416Z,46.90
2022-09-14T12:37:32.473Z,45.90
2022-09-14T12:40:39.701Z,44.50
2022-09-14T12:43:49.227Z,46.40
2022-09-14T12:46:39.870Z,46.70
2022-09-14T12:49:33.319Z,46.50
2022-09-14T12:52:33.537Z,45.90
2022-09-14T12:55:28.026Z,45.30
2022-09-14T12:58:10.981Z,46.00
2022-09-14T13:00:56.794Z,44.70
2022-09-14T13:03:50.488Z,44.90
2022-09-14T13:07:58.466Z,45.40
2022-09-14T13:10:33.060Z,45.60
2022-09-14T13:13:13.377Z,46.60
2022-09-14T13:15:53.357Z,46.00
2022-09-14T13:18:37.201Z,45.90
2022-09-14T13:21:21.074Z,46.30
2022-09-14T13:23:49.954Z,46.10
2022-09-14T13:26:22.792Z,46.20
2022-09-14T13:28:56.546Z,46.20
2022-09-14T13:31:33.140Z,45.60
2022-09-14T13:34:03.180Z,45.30
2022-09-14T13:41:11.970Z,47.30
2022-09-14T13:43:43.474Z,46.80
2022-09-14T13:46:18.370Z,47.60
2022-09-14T13:48:50.079Z,49.10
2022-09-14T13:51:25.835Z,48.40
2022-09-14T13:53:57.570Z,48.20
2022-09-14T13:56:31.371Z,48.60
2022-09-14T13:59:20.667Z,48.30
2022-09-14T14:01:59.134Z,49.20
2022-09-14T14:04:37.047Z,47.70
2022-09-14T14:07:22.962Z,46.70
2022-09-14T14:09:55.215Z,46.10
2022-09-14T14:12:27.449Z,46.20
2022-09-14T14:19:32.157Z,46.20
2022-09-14T14:22:18.782Z,46.10
2022-09-14T14:25:12.221Z,46.60
2022-09-14T14:27:46.158Z,45.10
2022-09-14T14:30:19.861Z,45.90
2022-09-14T14:32:52.083Z,45.80
2022-09-14T14:35:25.814Z,46.10
2022-09-14T14:37:55.744Z,45.50
2022-09-14T14:40:27.442Z,45.50
2022-09-14T14:43:00.086Z,44.90
2022-09-14T14:45:35.343Z,44.40
2022-09-14T14:48:05.773Z,43.80
2022-09-14T14:50:36.273Z,45.10
2022-09-14T14:53:06.458Z,44.70
2022-09-14T14:55:37.568Z,44.90
2022-09-14T14:58:09.996Z,44.80
2022-09-14T15:00:39.428Z,44.70
2022-09-14T15:03:08.171Z,44.30
2022-09-14T15:05:42.300Z,45.50
2022-09-14T15:08:12.402Z,45.30
2022-09-14T15:10:42.366Z,45.10
2022-09-14T15:13:12.600Z,45.90
2022-09-14T15:15:42.993Z,45.40
2022-09-14T15:18:11.874Z,45.40
2022-09-14T15:20:42.816Z,45.20
2022-09-14T15:23:14.267Z,45.00
2022-09-14T15:25:43.101Z,45.50
2022-09-14T15:32:44.829Z,45.40
2022-09-14T15:35:15.890Z,46.90
2022-09-14T15:37:48.416Z,46.50
2022-09-14T15:40:17.401Z,45.50
2022-09-14T15:42:46.190Z,45.50
2022-09-14T15:45:14.840Z,45.10
2022-09-14T15:47:44.189Z,44.30
2022-09-14T15:50:12.970Z,44.90
2022-09-14T15:52:42.072Z,44.50
2022-09-14T15:55:13.568Z,45.90
2022-09-14T15:57:42.470Z,45.60
2022-09-14T16:00:14.204Z,44.40
2022-09-14T16:02:44.821Z,43.60
2022-09-14T16:05:16.261Z,44.40
2022-09-14T16:07:45.268Z,44.40
2022-09-14T16:10:15.691Z,44.10
2022-09-14T16:12:44.365Z,45.10
2022-09-14T16:15:13.439Z,45.00
2022-09-14T16:17:42.249Z,46.60
2022-09-14T16:20:11.717Z,45.70
2022-09-14T16:22:40.620Z,46.70
2022-09-14T16:25:09.288Z,47.30
2022-09-14T16:27:39.453Z,47.60
2022-09-14T16:30:10.693Z,47.20
2022-09-14T16:32:39.319Z,47.60
2022-09-14T16:35:08.892Z,47.50
2022-09-14T16:37:37.631Z,47.40
2022-09-14T16:40:07.333Z,47.40
2022-09-14T16:42:35.856Z,48.30
2022-09-14T16:45:07.642Z,48.30
2022-09-14T16:47:37.360Z,47.80
2022-09-14T16:50:07.121Z,49.00
2022-09-14T16:52:35.961Z,48.30
2022-09-14T16:55:07.302Z,48.00
2022-09-14T16:57:36.071Z,47.70
2022-09-14T17:00:08.130Z,47.80
2022-09-14T17:02:36.970Z,48.40
2022-09-14T17:05:06.745Z,48.10
2022-09-14T17:07:35.903Z,48.00
2022-09-14T17:10:06.502Z,48.50
2022-09-14T17:12:35.215Z,48.90
2022-09-14T17:15:05.975Z,49.00
2022-09-14T17:17:35.719Z,48.80
2022-09-14T17:20:04.991Z,49.30
2022-09-14T17:22:34.422Z,49.70
2022-09-14T17:25:03.277Z,49.70
2022-09-14T17:27:32.103Z,49.70
2022-09-14T17:30:00.921Z,49.40
2022-09-14T17:37:04.151Z,50.00
2022-09-14T17:39:33.404Z,49.90
2022-09-14T17:42:02.230Z,50.30
2022-09-14T17:44:32.065Z,49.60
2022-09-14T17:47:01.289Z,49.60
2022-09-14T17:49:29.890Z,49.70
2022-09-14T17:56:33.230Z,50.40
2022-09-14T17:59:07.013Z,50.20
2022-09-14T18:01:36.378Z,50.20
2022-09-14T18:04:09.175Z,50.30
2022-09-14T18:06:40.937Z,50.60
2022-09-14T18:09:14.133Z,50.50
2022-09-14T18:11:46.295Z,50.50
2022-09-14T18:14:16.635Z,50.50
2022-09-14T18:16:46.375Z,50.60
2022-09-14T18:19:16.571Z,51.10
2022-09-14T18:21:50.240Z,51.10
2022-09-14T18:24:21.202Z,51.00
2022-09-14T18:26:51.652Z,51.30
2022-09-14T18:29:23.230Z,51.00
2022-09-14T18:31:52.882Z,51.10
2022-09-14T18:34:23.732Z,51.30
2022-09-14T18:36:53.536Z,51.10
2022-09-14T18:39:22.661Z,51.30
2022-09-14T18:41:54.003Z,51.20
2022-09-14T18:44:24.104Z,51.20
2022-09-14T18:46:52.978Z,51.30
2022-09-14T18:49:21.604Z,51.70
2022-09-14T18:51:50.727Z,51.90
2022-09-14T18:54:22.263Z,52.00
2022-09-14T18:56:57.253Z,51.80
2022-09-14T18:59:26.954Z,51.90
2022-09-14T19:01:55.649Z,51.80
2022-09-14T19:04:24.960Z,52.00
2022-09-14T19:06:53.734Z,52.10
2022-09-14T19:09:22.458Z,51.70
2022-09-14T19:11:51.798Z,51.70
2022-09-14T19:14:22.697Z,52.00
2022-09-14T19:16:51.750Z,51.90
2022-09-14T19:19:20.699Z,51.80
2022-09-14T19:21:49.425Z,51.90
2022-09-14T19:24:18.938Z,51.80
2022-09-14T19:26:52.888Z,51.80
2022-09-14T19:29:25.885Z,51.70
2022-09-14T19:31:55.788Z,51.60
2022-09-14T19:34:27.737Z,51.40
2022-09-14T19:36:57.079Z,51.40
2022-09-14T19:39:27.388Z,51.50
2022-09-14T19:41:56.012Z,51.70
2022-09-14T19:44:26.013Z,51.70
2022-09-14T19:46:54.871Z,51.80
2022-09-14T19:49:26.690Z,51.90
2022-09-14T19:51:56.596Z,52.10
2022-09-14T19:54:25.368Z,51.90
2022-09-14T19:56:54.099Z,52.10
2022-09-14T19:59:23.160Z,52.00
2022-09-14T20:01:53.521Z,52.20
2022-09-14T20:04:23.617Z,52.30
2022-09-14T20:06:52.702Z,52.40
2022-09-14T20:09:24.090Z,52.70
2022-09-14T20:11:53.977Z,52.60
2022-09-14T20:14:26.186Z,52.50
2022-09-14T20:16:59.733Z,52.40
2022-09-14T20:19:32.518Z,52.30
2022-09-14T20:22:01.249Z,52.40
2022-09-14T20:24:32.380Z,52.60
2022-09-14T20:27:03.158Z,53.30
2022-09-14T20:29:35.438Z,52.90
2022-09-14T20:32:07.136Z,53.00
2022-09-14T20:34:36.042Z,53.00
2022-09-14T20:37:04.947Z,52.80
2022-09-14T20:39:35.972Z,52.80
2022-09-14T20:42:04.956Z,52.80
2022-09-14T20:44:33.792Z,53.00
2022-09-14T20:47:02.316Z,53.00
2022-09-14T20:49:32.382Z,53.00
2022-09-14T20:52:02.825Z,52.70
2022-09-14T20:54:31.586Z,53.00
2022-09-14T20:57:04.282Z,53.30
2022-09-14T20:59:33.841Z,53.20
2022-09-14T21:02:05.345Z,53.10
2022-09-14T21:04:36.684Z,53.00
2022-09-14T21:07:06.102Z,53.10
2022-09-14T21:09:36.489Z,53.30
2022-09-14T21:12:05.385Z,53.20
2022-09-14T21:14:34.301Z,53.20
2022-09-14T21:17:02.812Z,53.10
2022-09-14T21:19:31.366Z,53.20
2022-09-14T21:22:01.551Z,53.20
2022-09-14T21:24:31.122Z,53.20
2022-09-14T21:26:59.784Z,53.70
2022-09-14T21:29:28.577Z,53.10
2022-09-14T21:31:57.107Z,53.20
2022-09-14T21:34:25.636Z,53.20
2022-09-14T21:36:54.384Z,53.30
2022-09-14T21:39:27.966Z,53.40
2022-09-14T21:41:59.639Z,53.40
2022-09-14T21:44:33.345Z,53.30
2022-09-14T21:47:03.464Z,53.30
2022-09-14T21:49:32.253Z,53.20
2022-09-14T21:52:00.817Z,53.30
2022-09-14T21:54:30.974Z,53.30
2022-09-14T21:56:59.619Z,53.20
2022-09-14T21:59:28.149Z,53.00
2022-09-14T22:01:56.882Z,53.30
2022-09-14T22:04:26.919Z,53.50
2022-09-14T22:06:57.232Z,53.60
2022-09-14T22:09:29.234Z,53.50
2022-09-14T22:11:59.862Z,53.30
2022-09-14T22:14:30.309Z,53.30
2022-09-14T22:16:58.852Z,53.50
2022-09-14T22:19:31.088Z,53.60
2022-09-14T22:22:00.901Z,53.50
2022-09-14T22:24:37.878Z,53.60
2022-09-14T22:27:11.042Z,53.60
2022-09-14T22:34:11.287Z,53.60
2022-09-14T22:36:41.183Z,53.70
2022-09-14T22:39:11.625Z,53.70
2022-09-14T22:41:41.270Z,53.50
2022-09-14T22:44:13.705Z,53.50
2022-09-14T22:46:43.223Z,53.60
2022-09-14T22:49:11.947Z,53.50
2022-09-14T22:51:40.974Z,53.30
2022-09-14T22:54:10.097Z,53.30
2022-09-14T22:56:40.515Z,53.30
2022-09-14T22:59:11.929Z,53.20
2022-09-14T23:01:42.709Z,53.20
2022-09-14T23:04:14.585Z,53.20
2022-09-14T23:06:47.767Z,53.90
2022-09-14T23:09:20.293Z,53.40
2022-09-14T23:11:49.868Z,53.30
2022-09-14T23:14:19.731Z,53.90
2022-09-14T23:16:48.371Z,53.30
2022-09-14T23:19:19.545Z,53.50
2022-09-14T23:21:48.882Z,53.50
2022-09-14T23:24:17.919Z,53.40
2022-09-14T23:26:46.607Z,53.40
2022-09-14T23:29:18.913Z,53.50
2022-09-14T23:31:47.713Z,53.50
2022-09-14T23:34:16.822Z,53.40
2022-09-14T23:36:45.439Z,53.50
2022-09-14T23:39:14.180Z,53.50
2022-09-14T23:41:42.859Z,53.50
2022-09-14T23:44:12.976Z,53.50
2022-09-14T23:46:43.457Z,53.60
2022-09-14T23:49:13.477Z,53.70
2022-09-14T23:51:43.023Z,53.80
2022-09-14T23:54:12.635Z,53.80
2022-09-14T23:56:41.554Z,53.70
2022-09-14T23:59:13.219Z,53.90
